sensor_id;sensor_type;location;lat;lon;timestamp;P1;durP1;ratioP1;P2;durP2;ratioP2
4630;SDS011;2328;48.170;11.602;2024-02-14T00:01:16;1.53;;;1.10;;
4630;SDS011;2328;48.170;11.602;2024-02-14T00:03:45;1.73;;;0.77;;
4630;SDS011;2328;48.170;11.602;2024-02-14T00:06:14;3.60;;;1.43;;
4630;SDS011;2328;48.170;11.602;2024-02-14T00:08:42;3.90;;;1.03;;
4630;SDS011;2328;48.170;11.602;2024-02-14T00:11:13;6.20;;;1.33;;
4630;SDS011;2328;48.170;11.602;2024-02-14T00:13:42;0.80;;;0.70;;
4630;SDS011;2328;48.170;11.602;2024-02-14T00:16:10;2.40;;;1.20;;
4630;SDS011;2328;48.170;11.602;2024-02-14T00:18:38;1.80;;;1.30;;
4630;SDS011;2328;48.170;11.602;2024-02-14T00:21:07;1.23;;;1.10;;
4630;SDS011;2328;48.170;11.602;2024-02-14T00:23:36;1.13;;;0.83;;
4630;SDS011;2328;48.170;11.602;2024-02-14T00:26:04;3.43;;;1.27;;
4630;SDS011;2328;48.170;11.602;2024-02-14T00:28:35;1.70;;;1.20;;
4630;SDS011;2328;48.170;11.602;2024-02-14T00:31:04;0.60;;;0.60;;
4630;SDS011;2328;48.170;11.602;2024-02-14T00:33:33;3.30;;;0.87;;
4630;SDS011;2328;48.170;11.602;2024-02-14T00:36:03;0.60;;;0.50;;
4630;SDS011;2328;48.170;11.602;2024-02-14T00:38:32;2.23;;;1.00;;
4630;SDS011;2328;48.170;11.602;2024-02-14T00:41:00;1.50;;;0.97;;
4630;SDS011;2328;48.170;11.602;2024-02-14T00:43:30;1.03;;;0.90;;
4630;SDS011;2328;48.170;11.602;2024-02-14T00:45:59;1.83;;;0.90;;
4630;SDS011;2328;48.170;11.602;2024-02-14T00:48:28;1.67;;;1.23;;
4630;SDS011;2328;48.170;11.602;2024-02-14T00:50:56;1.20;;;1.10;;
4630;SDS011;2328;48.170;11.602;2024-02-14T00:53:26;1.27;;;1.10;;
4630;SDS011;2328;48.170;11.602;2024-02-14T00:55:55;1.00;;;0.70;;
4630;SDS011;2328;48.170;11.602;2024-02-14T00:58:24;1.33;;;0.80;;
4630;SDS011;2328;48.170;11.602;2024-02-14T01:00:53;1.07;;;0.73;;
4630;SDS011;2328;48.170;11.602;2024-02-14T01:03:23;0.73;;;0.57;;
4630;SDS011;2328;48.170;11.602;2024-02-14T01:05:51;1.13;;;0.63;;
4630;SDS011;2328;48.170;11.602;2024-02-14T01:08:20;1.07;;;0.60;;
4630;SDS011;2328;48.170;11.602;2024-02-14T01:10:49;3.80;;;0.87;;
4630;SDS011;2328;48.170;11.602;2024-02-14T01:13:18;0.90;;;0.70;;
4630;SDS011;2328;48.170;11.602;2024-02-14T01:15:47;1.67;;;1.00;;
4630;SDS011;2328;48.170;11.602;2024-02-14T01:18:17;3.93;;;0.97;;
4630;SDS011;2328;48.170;11.602;2024-02-14T01:20:48;0.60;;;0.60;;
4630;SDS011;2328;48.170;11.602;2024-02-14T01:23:17;0.67;;;0.50;;
4630;SDS011;2328;48.170;11.602;2024-02-14T01:25:46;2.23;;;0.67;;
4630;SDS011;2328;48.170;11.602;2024-02-14T01:28:15;4.10;;;0.70;;
4630;SDS011;2328;48.170;11.602;2024-02-14T01:30:54;1.00;;;0.73;;
4630;SDS011;2328;48.170;11.602;2024-02-14T01:33:33;1.20;;;0.57;;
4630;SDS011;2328;48.170;11.602;2024-02-14T01:36:03;1.40;;;0.60;;
4630;SDS011;2328;48.170;11.602;2024-02-14T01:38:32;1.63;;;0.73;;
4630;SDS011;2328;48.170;11.602;2024-02-14T01:41:02;1.63;;;0.80;;
4630;SDS011;2328;48.170;11.602;2024-02-14T01:43:31;0.70;;;0.60;;
4630;SDS011;2328;48.170;11.602;2024-02-14T01:46:03;1.10;;;0.70;;
4630;SDS011;2328;48.170;11.602;2024-02-14T01:48:33;1.40;;;0.70;;
4630;SDS011;2328;48.170;11.602;2024-02-14T01:51:04;2.30;;;0.70;;
4630;SDS011;2328;48.170;11.602;2024-02-14T01:53:36;2.73;;;0.70;;
4630;SDS011;2328;48.170;11.602;2024-02-14T01:56:05;1.43;;;0.67;;
4630;SDS011;2328;48.170;11.602;2024-02-14T01:58:34;1.23;;;0.70;;
4630;SDS011;2328;48.170;11.602;2024-02-14T02:01:04;2.10;;;0.73;;
4630;SDS011;2328;48.170;11.602;2024-02-14T02:03:33;3.20;;;0.87;;
4630;SDS011;2328;48.170;11.602;2024-02-14T02:06:06;1.43;;;0.93;;
4630;SDS011;2328;48.170;11.602;2024-02-14T02:08:35;0.80;;;0.80;;
4630;SDS011;2328;48.170;11.602;2024-02-14T02:11:04;1.33;;;0.70;;
4630;SDS011;2328;48.170;11.602;2024-02-14T02:13:33;1.20;;;0.80;;
4630;SDS011;2328;48.170;11.602;2024-02-14T02:16:03;1.93;;;0.97;;
4630;SDS011;2328;48.170;11.602;2024-02-14T02:18:33;0.70;;;0.60;;
4630;SDS011;2328;48.170;11.602;2024-02-14T02:21:01;0.73;;;0.60;;
4630;SDS011;2328;48.170;11.602;2024-02-14T02:23:36;2.97;;;0.73;;
4630;SDS011;2328;48.170;11.602;2024-02-14T02:26:07;1.13;;;0.70;;
4630;SDS011;2328;48.170;11.602;2024-02-14T02:28:36;2.40;;;0.67;;
4630;SDS011;2328;48.170;11.602;2024-02-14T02:31:08;0.87;;;0.70;;
4630;SDS011;2328;48.170;11.602;2024-02-14T02:33:37;1.20;;;0.60;;
4630;SDS011;2328;48.170;11.602;2024-02-14T02:36:05;1.83;;;0.67;;
4630;SDS011;2328;48.170;11.602;2024-02-14T02:38:38;15.33;;;0.80;;
4630;SDS011;2328;48.170;11.602;2024-02-14T02:41:07;1.10;;;0.67;;
4630;SDS011;2328;48.170;11.602;2024-02-14T02:43:35;0.80;;;0.60;;
4630;SDS011;2328;48.170;11.602;2024-02-14T02:46:04;0.73;;;0.57;;
4630;SDS011;2328;48.170;11.602;2024-02-14T02:48:34;2.20;;;0.77;;
4630;SDS011;2328;48.170;11.602;2024-02-14T02:51:03;0.70;;;0.70;;
4630;SDS011;2328;48.170;11.602;2024-02-14T02:53:33;0.90;;;0.50;;
4630;SDS011;2328;48.170;11.602;2024-02-14T02:56:05;2.50;;;0.70;;
4630;SDS011;2328;48.170;11.602;2024-02-14T02:58:35;1.23;;;0.53;;
4630;SDS011;2328;48.170;11.602;2024-02-14T03:01:07;0.60;;;0.50;;
4630;SDS011;2328;48.170;11.602;2024-02-14T03:03:36;3.20;;;1.17;;
4630;SDS011;2328;48.170;11.602;2024-02-14T03:06:06;0.70;;;0.57;;
4630;SDS011;2328;48.170;11.602;2024-02-14T03:08:35;1.47;;;0.67;;
4630;SDS011;2328;48.170;11.602;2024-02-14T03:11:07;1.10;;;0.63;;
4630;SDS011;2328;48.170;11.602;2024-02-14T03:13:36;0.93;;;0.57;;
4630;SDS011;2328;48.170;11.602;2024-02-14T03:16:08;0.83;;;0.70;;
4630;SDS011;2328;48.170;11.602;2024-02-14T03:18:37;1.00;;;0.50;;
4630;SDS011;2328;48.170;11.602;2024-02-14T03:21:06;0.53;;;0.53;;
4630;SDS011;2328;48.170;11.602;2024-02-14T03:23:35;0.90;;;0.80;;
4630;SDS011;2328;48.170;11.602;2024-02-14T03:26:05;0.83;;;0.80;;
4630;SDS011;2328;48.170;11.602;2024-02-14T03:28:35;0.87;;;0.80;;
4630;SDS011;2328;48.170;11.602;2024-02-14T03:31:04;1.00;;;0.50;;
4630;SDS011;2328;48.170;11.602;2024-02-14T03:33:32;0.80;;;0.67;;
4630;SDS011;2328;48.170;11.602;2024-02-14T03:36:01;7.80;;;0.70;;
4630;SDS011;2328;48.170;11.602;2024-02-14T03:38:30;0.87;;;0.87;;
4630;SDS011;2328;48.170;11.602;2024-02-14T03:40:59;0.70;;;0.63;;
4630;SDS011;2328;48.170;11.602;2024-02-14T03:43:28;1.07;;;0.83;;
4630;SDS011;2328;48.170;11.602;2024-02-14T03:45:59;1.53;;;0.90;;
4630;SDS011;2328;48.170;11.602;2024-02-14T03:48:28;0.90;;;0.77;;
4630;SDS011;2328;48.170;11.602;2024-02-14T03:50:57;0.90;;;0.50;;
4630;SDS011;2328;48.170;11.602;2024-02-14T03:53:25;0.80;;;0.60;;
4630;SDS011;2328;48.170;11.602;2024-02-14T03:55:54;0.70;;;0.60;;
4630;SDS011;2328;48.170;11.602;2024-02-14T03:58:23;0.50;;;0.50;;
4630;SDS011;2328;48.170;11.602;2024-02-14T04:00:55;1.43;;;0.50;;
4630;SDS011;2328;48.170;11.602;2024-02-14T04:03:24;0.70;;;0.53;;
4630;SDS011;2328;48.170;11.602;2024-02-14T04:05:55;0.70;;;0.60;;
4630;SDS011;2328;48.170;11.602;2024-02-14T04:08:24;1.00;;;0.73;;
4630;SDS011;2328;48.170;11.602;2024-02-14T04:10:53;0.60;;;0.60;;
4630;SDS011;2328;48.170;11.602;2024-02-14T04:13:21;0.60;;;0.50;;
4630;SDS011;2328;48.170;11.602;2024-02-14T04:15:50;1.03;;;0.50;;
4630;SDS011;2328;48.170;11.602;2024-02-14T04:18:27;0.80;;;0.40;;
4630;SDS011;2328;48.170;11.602;2024-02-14T04:20:55;0.83;;;0.47;;
4630;SDS011;2328;48.170;11.602;2024-02-14T04:23:24;0.50;;;0.40;;
4630;SDS011;2328;48.170;11.602;2024-02-14T04:25:52;0.83;;;0.50;;
4630;SDS011;2328;48.170;11.602;2024-02-14T04:28:21;1.20;;;0.67;;
4630;SDS011;2328;48.170;11.602;2024-02-14T04:30:49;0.50;;;0.40;;
4630;SDS011;2328;48.170;11.602;2024-02-14T04:33:21;0.80;;;0.50;;
4630;SDS011;2328;48.170;11.602;2024-02-14T04:35:50;1.13;;;0.67;;
4630;SDS011;2328;48.170;11.602;2024-02-14T04:38:20;0.60;;;0.40;;
4630;SDS011;2328;48.170;11.602;2024-02-14T04:40:49;2.10;;;0.60;;
4630;SDS011;2328;48.170;11.602;2024-02-14T04:43:18;0.50;;;0.40;;
4630;SDS011;2328;48.170;11.602;2024-02-14T04:45:47;2.20;;;0.50;;
4630;SDS011;2328;48.170;11.602;2024-02-14T04:48:17;1.90;;;0.83;;
4630;SDS011;2328;48.170;11.602;2024-02-14T04:50:47;1.03;;;0.60;;
4630;SDS011;2328;48.170;11.602;2024-02-14T04:53:15;0.80;;;0.60;;
4630;SDS011;2328;48.170;11.602;2024-02-14T04:55:44;1.67;;;0.80;;
4630;SDS011;2328;48.170;11.602;2024-02-14T04:58:12;0.60;;;0.50;;
4630;SDS011;2328;48.170;11.602;2024-02-14T05:00:41;0.60;;;0.50;;
4630;SDS011;2328;48.170;11.602;2024-02-14T05:03:10;1.00;;;0.53;;
4630;SDS011;2328;48.170;11.602;2024-02-14T05:05:39;1.70;;;0.50;;
4630;SDS011;2328;48.170;11.602;2024-02-14T05:08:09;0.60;;;0.50;;
4630;SDS011;2328;48.170;11.602;2024-02-14T05:10:37;1.27;;;0.53;;
4630;SDS011;2328;48.170;11.602;2024-02-14T05:13:07;0.70;;;0.50;;
4630;SDS011;2328;48.170;11.602;2024-02-14T05:15:36;1.03;;;0.50;;
4630;SDS011;2328;48.170;11.602;2024-02-14T05:18:04;0.80;;;0.60;;
4630;SDS011;2328;48.170;11.602;2024-02-14T05:20:33;1.53;;;0.60;;
4630;SDS011;2328;48.170;11.602;2024-02-14T05:23:02;0.60;;;0.50;;
4630;SDS011;2328;48.170;11.602;2024-02-14T05:25:32;0.70;;;0.70;;
4630;SDS011;2328;48.170;11.602;2024-02-14T05:28:00;0.97;;;0.53;;
4630;SDS011;2328;48.170;11.602;2024-02-14T05:30:29;2.40;;;0.70;;
4630;SDS011;2328;48.170;11.602;2024-02-14T05:32:58;1.93;;;0.70;;
4630;SDS011;2328;48.170;11.602;2024-02-14T05:38:14;0.80;;;0.60;;
4630;SDS011;2328;48.170;11.602;2024-02-14T05:40:44;0.70;;;0.60;;
4630;SDS011;2328;48.170;11.602;2024-02-14T05:43:13;0.80;;;0.67;;
4630;SDS011;2328;48.170;11.602;2024-02-14T05:45:41;2.73;;;0.70;;
4630;SDS011;2328;48.170;11.602;2024-02-14T05:48:09;1.03;;;0.80;;
4630;SDS011;2328;48.170;11.602;2024-02-14T05:50:38;1.30;;;0.70;;
4630;SDS011;2328;48.170;11.602;2024-02-14T05:53:07;1.63;;;0.70;;
4630;SDS011;2328;48.170;11.602;2024-02-14T05:55:36;1.83;;;0.50;;
4630;SDS011;2328;48.170;11.602;2024-02-14T05:58:05;0.90;;;0.80;;
4630;SDS011;2328;48.170;11.602;2024-02-14T06:00:34;0.90;;;0.60;;
4630;SDS011;2328;48.170;11.602;2024-02-14T06:03:03;5.33;;;0.77;;
4630;SDS011;2328;48.170;11.602;2024-02-14T06:05:34;0.80;;;0.50;;
4630;SDS011;2328;48.170;11.602;2024-02-14T06:08:02;0.90;;;0.70;;
4630;SDS011;2328;48.170;11.602;2024-02-14T06:10:31;1.60;;;0.67;;
4630;SDS011;2328;48.170;11.602;2024-02-14T06:13:01;1.10;;;0.60;;
4630;SDS011;2328;48.170;11.602;2024-02-14T06:15:31;0.77;;;0.53;;
4630;SDS011;2328;48.170;11.602;2024-02-14T06:18:00;1.67;;;0.70;;
4630;SDS011;2328;48.170;11.602;2024-02-14T06:20:28;2.10;;;0.63;;
4630;SDS011;2328;48.170;11.602;2024-02-14T06:22:57;0.70;;;0.63;;
4630;SDS011;2328;48.170;11.602;2024-02-14T06:25:31;0.70;;;0.60;;
4630;SDS011;2328;48.170;11.602;2024-02-14T06:28:00;1.00;;;0.50;;
4630;SDS011;2328;48.170;11.602;2024-02-14T06:30:28;1.10;;;0.70;;
4630;SDS011;2328;48.170;11.602;2024-02-14T06:32:59;0.80;;;0.60;;
4630;SDS011;2328;48.170;11.602;2024-02-14T06:35:29;0.80;;;0.60;;
4630;SDS011;2328;48.170;11.602;2024-02-14T06:38:00;2.03;;;1.00;;
4630;SDS011;2328;48.170;11.602;2024-02-14T06:40:31;0.80;;;0.77;;
4630;SDS011;2328;48.170;11.602;2024-02-14T06:42:59;0.90;;;0.80;;
4630;SDS011;2328;48.170;11.602;2024-02-14T06:45:28;0.73;;;0.53;;
4630;SDS011;2328;48.170;11.602;2024-02-14T06:48:04;0.50;;;0.50;;
4630;SDS011;2328;48.170;11.602;2024-02-14T06:50:35;0.50;;;0.43;;
4630;SDS011;2328;48.170;11.602;2024-02-14T06:53:04;0.97;;;0.67;;
4630;SDS011;2328;48.170;11.602;2024-02-14T06:55:33;6.67;;;0.90;;
4630;SDS011;2328;48.170;11.602;2024-02-14T06:58:20;1.20;;;0.80;;
4630;SDS011;2328;48.170;11.602;2024-02-14T07:00:49;0.80;;;0.70;;
4630;SDS011;2328;48.170;11.602;2024-02-14T07:03:20;3.60;;;0.97;;
4630;SDS011;2328;48.170;11.602;2024-02-14T07:05:49;1.07;;;0.73;;
4630;SDS011;2328;48.170;11.602;2024-02-14T07:08:18;1.97;;;1.10;;
4630;SDS011;2328;48.170;11.602;2024-02-14T07:10:47;0.90;;;0.80;;
4630;SDS011;2328;48.170;11.602;2024-02-14T07:13:15;2.33;;;0.80;;
4630;SDS011;2328;48.170;11.602;2024-02-14T07:15:43;2.50;;;1.03;;
4630;SDS011;2328;48.170;11.602;2024-02-14T07:18:12;15.80;;;3.00;;
4630;SDS011;2328;48.170;11.602;2024-02-14T07:20:43;9.67;;;2.57;;
4630;SDS011;2328;48.170;11.602;2024-02-14T07:23:12;5.63;;;2.40;;
4630;SDS011;2328;48.170;11.602;2024-02-14T07:25:42;5.13;;;2.27;;
4630;SDS011;2328;48.170;11.602;2024-02-14T07:28:11;7.30;;;2.60;;
4630;SDS011;2328;48.170;11.602;2024-02-14T07:30:40;4.70;;;1.60;;
4630;SDS011;2328;48.170;11.602;2024-02-14T07:33:08;2.80;;;1.43;;
4630;SDS011;2328;48.170;11.602;2024-02-14T07:35:37;7.73;;;1.33;;
4630;SDS011;2328;48.170;11.602;2024-02-14T07:38:08;4.93;;;1.23;;
4630;SDS011;2328;48.170;11.602;2024-02-14T07:40:37;2.10;;;0.70;;
4630;SDS011;2328;48.170;11.602;2024-02-14T07:43:06;0.60;;;0.60;;
4630;SDS011;2328;48.170;11.602;2024-02-14T07:45:34;1.70;;;0.73;;
4630;SDS011;2328;48.170;11.602;2024-02-14T07:48:04;1.00;;;0.60;;
4630;SDS011;2328;48.170;11.602;2024-02-14T07:50:34;2.20;;;0.80;;
4630;SDS011;2328;48.170;11.602;2024-02-14T07:53:03;1.17;;;0.60;;
4630;SDS011;2328;48.170;11.602;2024-02-14T07:55:34;0.70;;;0.70;;
4630;SDS011;2328;48.170;11.602;2024-02-14T07:58:03;4.97;;;0.67;;
4630;SDS011;2328;48.170;11.602;2024-02-14T08:00:34;2.30;;;0.60;;
4630;SDS011;2328;48.170;11.602;2024-02-14T08:03:04;1.33;;;0.60;;
4630;SDS011;2328;48.170;11.602;2024-02-14T08:05:33;1.77;;;0.80;;
4630;SDS011;2328;48.170;11.602;2024-02-14T08:08:04;1.33;;;0.90;;
4630;SDS011;2328;48.170;11.602;2024-02-14T08:10:35;0.97;;;0.60;;
4630;SDS011;2328;48.170;11.602;2024-02-14T08:13:05;0.67;;;0.57;;
4630;SDS011;2328;48.170;11.602;2024-02-14T08:15:37;1.50;;;1.03;;
4630;SDS011;2328;48.170;11.602;2024-02-14T08:18:07;6.53;;;1.27;;
4630;SDS011;2328;48.170;11.602;2024-02-14T08:20:36;0.97;;;0.80;;
4630;SDS011;2328;48.170;11.602;2024-02-14T08:23:08;1.63;;;0.57;;
4630;SDS011;2328;48.170;11.602;2024-02-14T08:25:38;1.00;;;0.90;;
4630;SDS011;2328;48.170;11.602;2024-02-14T08:28:08;1.13;;;0.70;;
4630;SDS011;2328;48.170;11.602;2024-02-14T08:30:37;0.70;;;0.70;;
4630;SDS011;2328;48.170;11.602;2024-02-14T08:33:06;1.27;;;0.53;;
4630;SDS011;2328;48.170;11.602;2024-02-14T08:35:37;5.10;;;0.70;;
4630;SDS011;2328;48.170;11.602;2024-02-14T08:38:09;0.80;;;0.60;;
4630;SDS011;2328;48.170;11.602;2024-02-14T08:40:40;1.00;;;0.80;;
4630;SDS011;2328;48.170;11.602;2024-02-14T08:43:08;0.80;;;0.70;;
4630;SDS011;2328;48.170;11.602;2024-02-14T08:45:38;0.70;;;0.70;;
4630;SDS011;2328;48.170;11.602;2024-02-14T08:48:06;1.23;;;0.60;;
4630;SDS011;2328;48.170;11.602;2024-02-14T08:50:35;1.43;;;0.80;;
4630;SDS011;2328;48.170;11.602;2024-02-14T08:53:04;3.60;;;0.50;;
4630;SDS011;2328;48.170;11.602;2024-02-14T08:55:33;2.33;;;0.70;;
4630;SDS011;2328;48.170;11.602;2024-02-14T08:58:05;3.03;;;1.27;;
4630;SDS011;2328;48.170;11.602;2024-02-14T09:00:36;1.10;;;1.00;;
4630;SDS011;2328;48.170;11.602;2024-02-14T09:03:05;0.90;;;0.80;;
4630;SDS011;2328;48.170;11.602;2024-02-14T09:05:45;0.90;;;0.77;;
4630;SDS011;2328;48.170;11.602;2024-02-14T09:08:16;2.50;;;1.00;;
4630;SDS011;2328;48.170;11.602;2024-02-14T09:10:47;1.47;;;0.63;;
4630;SDS011;2328;48.170;11.602;2024-02-14T09:13:17;0.90;;;0.60;;
4630;SDS011;2328;48.170;11.602;2024-02-14T09:15:49;1.57;;;0.60;;
4630;SDS011;2328;48.170;11.602;2024-02-14T09:18:22;0.60;;;0.60;;
4630;SDS011;2328;48.170;11.602;2024-02-14T09:20:52;0.90;;;0.70;;
4630;SDS011;2328;48.170;11.602;2024-02-14T09:23:29;0.93;;;0.67;;
4630;SDS011;2328;48.170;11.602;2024-02-14T09:25:58;0.60;;;0.50;;
4630;SDS011;2328;48.170;11.602;2024-02-14T09:28:30;0.70;;;0.50;;
4630;SDS011;2328;48.170;11.602;2024-02-14T09:30:59;1.93;;;0.93;;
4630;SDS011;2328;48.170;11.602;2024-02-14T09:33:30;0.80;;;0.50;;
4630;SDS011;2328;48.170;11.602;2024-02-14T09:36:02;2.30;;;0.80;;
4630;SDS011;2328;48.170;11.602;2024-02-14T09:38:33;3.17;;;0.50;;
4630;SDS011;2328;48.170;11.602;2024-02-14T09:41:05;4.30;;;1.00;;
4630;SDS011;2328;48.170;11.602;2024-02-14T09:43:43;0.50;;;0.40;;
4630;SDS011;2328;48.170;11.602;2024-02-14T09:46:13;3.17;;;0.63;;
4630;SDS011;2328;48.170;11.602;2024-02-14T09:48:47;1.53;;;0.63;;
4630;SDS011;2328;48.170;11.602;2024-02-14T09:51:20;0.80;;;0.57;;
4630;SDS011;2328;48.170;11.602;2024-02-14T09:53:50;0.53;;;0.40;;
4630;SDS011;2328;48.170;11.602;2024-02-14T09:56:22;2.27;;;0.80;;
4630;SDS011;2328;48.170;11.602;2024-02-14T09:58:52;0.50;;;0.40;;
4630;SDS011;2328;48.170;11.602;2024-02-14T10:01:24;0.60;;;0.50;;
4630;SDS011;2328;48.170;11.602;2024-02-14T10:03:57;0.97;;;0.70;;
4630;SDS011;2328;48.170;11.602;2024-02-14T10:06:26;0.50;;;0.40;;
4630;SDS011;2328;48.170;11.602;2024-02-14T10:08:57;1.47;;;0.60;;
4630;SDS011;2328;48.170;11.602;2024-02-14T10:11:30;0.60;;;0.50;;
4630;SDS011;2328;48.170;11.602;2024-02-14T10:14:06;1.20;;;0.80;;
4630;SDS011;2328;48.170;11.602;2024-02-14T10:16:42;1.80;;;0.50;;
4630;SDS011;2328;48.170;11.602;2024-02-14T10:19:14;0.50;;;0.30;;
4630;SDS011;2328;48.170;11.602;2024-02-14T10:21:54;0.50;;;0.40;;
4630;SDS011;2328;48.170;11.602;2024-02-14T10:24:24;2.43;;;0.40;;
4630;SDS011;2328;48.170;11.602;2024-02-14T10:26:54;0.90;;;0.40;;
4630;SDS011;2328;48.170;11.602;2024-02-14T10:29:26;0.70;;;0.40;;
4630;SDS011;2328;48.170;11.602;2024-02-14T10:32:05;0.50;;;0.40;;
4630;SDS011;2328;48.170;11.602;2024-02-14T10:34:37;4.00;;;1.00;;
4630;SDS011;2328;48.170;11.602;2024-02-14T10:37:09;0.80;;;0.60;;
4630;SDS011;2328;48.170;11.602;2024-02-14T10:39:38;0.60;;;0.50;;
4630;SDS011;2328;48.170;11.602;2024-02-14T10:42:10;0.93;;;0.63;;
4630;SDS011;2328;48.170;11.602;2024-02-14T10:44:41;0.50;;;0.40;;
4630;SDS011;2328;48.170;11.602;2024-02-14T10:47:11;0.70;;;0.50;;
4630;SDS011;2328;48.170;11.602;2024-02-14T10:49:49;0.70;;;0.60;;
4630;SDS011;2328;48.170;11.602;2024-02-14T10:52:19;1.10;;;0.50;;
4630;SDS011;2328;48.170;11.602;2024-02-14T10:54:51;0.70;;;0.50;;
4630;SDS011;2328;48.170;11.602;2024-02-14T10:57:26;0.50;;;0.30;;
4630;SDS011;2328;48.170;11.602;2024-02-14T11:00:02;0.67;;;0.60;;
4630;SDS011;2328;48.170;11.602;2024-02-14T11:02:37;1.07;;;0.50;;
4630;SDS011;2328;48.170;11.602;2024-02-14T11:05:11;1.53;;;0.40;;
4630;SDS011;2328;48.170;11.602;2024-02-14T11:07:55;0.60;;;0.40;;
4630;SDS011;2328;48.170;11.602;2024-02-14T11:10:39;0.70;;;0.40;;
4630;SDS011;2328;48.170;11.602;2024-02-14T11:13:09;0.63;;;0.40;;
4630;SDS011;2328;48.170;11.602;2024-02-14T11:15:44;0.73;;;0.50;;
4630;SDS011;2328;48.170;11.602;2024-02-14T11:18:14;0.80;;;0.40;;
4630;SDS011;2328;48.170;11.602;2024-02-14T11:20:55;0.70;;;0.37;;
4630;SDS011;2328;48.170;11.602;2024-02-14T11:23:52;0.70;;;0.40;;
4630;SDS011;2328;48.170;11.602;2024-02-14T11:26:22;0.90;;;0.30;;
4630;SDS011;2328;48.170;11.602;2024-02-14T11:28:59;2.10;;;0.63;;
4630;SDS011;2328;48.170;11.602;2024-02-14T11:31:43;1.37;;;0.70;;
4630;SDS011;2328;48.170;11.602;2024-02-14T11:34:12;0.60;;;0.50;;
4630;SDS011;2328;48.170;11.602;2024-02-14T11:36:42;1.00;;;0.33;;
4630;SDS011;2328;48.170;11.602;2024-02-14T11:39:12;0.63;;;0.50;;
4630;SDS011;2328;48.170;11.602;2024-02-14T11:41:42;0.70;;;0.50;;
4630;SDS011;2328;48.170;11.602;2024-02-14T11:44:12;0.93;;;0.60;;
4630;SDS011;2328;48.170;11.602;2024-02-14T11:46:42;0.80;;;0.40;;
4630;SDS011;2328;48.170;11.602;2024-02-14T11:49:11;0.60;;;0.60;;
4630;SDS011;2328;48.170;11.602;2024-02-14T11:51:39;0.50;;;0.40;;
4630;SDS011;2328;48.170;11.602;2024-02-14T11:54:08;0.50;;;0.40;;
4630;SDS011;2328;48.170;11.602;2024-02-14T11:56:37;1.03;;;0.40;;
4630;SDS011;2328;48.170;11.602;2024-02-14T11:59:06;0.60;;;0.53;;
4630;SDS011;2328;48.170;11.602;2024-02-14T12:01:36;1.00;;;0.50;;
4630;SDS011;2328;48.170;11.602;2024-02-14T12:04:07;0.50;;;0.30;;
4630;SDS011;2328;48.170;11.602;2024-02-14T12:06:36;0.80;;;0.30;;
4630;SDS011;2328;48.170;11.602;2024-02-14T12:09:08;0.53;;;0.40;;
4630;SDS011;2328;48.170;11.602;2024-02-14T12:11:40;0.50;;;0.40;;
4630;SDS011;2328;48.170;11.602;2024-02-14T12:14:11;2.57;;;0.47;;
4630;SDS011;2328;48.170;11.602;2024-02-14T12:16:40;0.50;;;0.40;;
4630;SDS011;2328;48.170;11.602;2024-02-14T12:19:14;0.60;;;0.40;;
4630;SDS011;2328;48.170;11.602;2024-02-14T12:21:44;0.50;;;0.40;;
4630;SDS011;2328;48.170;11.602;2024-02-14T12:24:14;0.97;;;0.50;;
4630;SDS011;2328;48.170;11.602;2024-02-14T12:26:43;0.80;;;0.37;;
4630;SDS011;2328;48.170;11.602;2024-02-14T12:29:15;0.70;;;0.50;;
4630;SDS011;2328;48.170;11.602;2024-02-14T12:31:45;0.73;;;0.60;;
4630;SDS011;2328;48.170;11.602;2024-02-14T12:34:16;0.90;;;0.40;;
4630;SDS011;2328;48.170;11.602;2024-02-14T12:36:51;0.63;;;0.37;;
4630;SDS011;2328;48.170;11.602;2024-02-14T12:39:21;0.63;;;0.40;;
4630;SDS011;2328;48.170;11.602;2024-02-14T12:41:50;0.60;;;0.37;;
4630;SDS011;2328;48.170;11.602;2024-02-14T12:44:19;0.50;;;0.30;;
4630;SDS011;2328;48.170;11.602;2024-02-14T12:46:49;0.70;;;0.30;;
4630;SDS011;2328;48.170;11.602;2024-02-14T12:49:28;0.60;;;0.43;;
4630;SDS011;2328;48.170;11.602;2024-02-14T12:51:58;1.80;;;0.40;;
4630;SDS011;2328;48.170;11.602;2024-02-14T12:54:28;0.50;;;0.33;;
4630;SDS011;2328;48.170;11.602;2024-02-14T12:56:59;0.50;;;0.30;;
4630;SDS011;2328;48.170;11.602;2024-02-14T12:59:28;1.30;;;0.57;;
4630;SDS011;2328;48.170;11.602;2024-02-14T13:01:57;0.60;;;0.40;;
4630;SDS011;2328;48.170;11.602;2024-02-14T13:04:34;0.80;;;0.40;;
4630;SDS011;2328;48.170;11.602;2024-02-14T13:07:03;0.60;;;0.40;;
4630;SDS011;2328;48.170;11.602;2024-02-14T13:09:34;1.47;;;0.80;;
4630;SDS011;2328;48.170;11.602;2024-02-14T13:12:08;0.53;;;0.40;;
4630;SDS011;2328;48.170;11.602;2024-02-14T13:14:37;0.73;;;0.37;;
4630;SDS011;2328;48.170;11.602;2024-02-14T13:17:07;0.50;;;0.37;;
4630;SDS011;2328;48.170;11.602;2024-02-14T13:19:42;0.60;;;0.40;;
4630;SDS011;2328;48.170;11.602;2024-02-14T13:22:12;0.50;;;0.30;;
4630;SDS011;2328;48.170;11.602;2024-02-14T13:24:41;1.63;;;0.40;;
4630;SDS011;2328;48.170;11.602;2024-02-14T13:27:11;0.50;;;0.40;;
4630;SDS011;2328;48.170;11.602;2024-02-14T13:29:41;0.60;;;0.50;;
4630;SDS011;2328;48.170;11.602;2024-02-14T13:32:24;0.60;;;0.40;;
4630;SDS011;2328;48.170;11.602;2024-02-14T13:34:57;1.00;;;0.40;;
4630;SDS011;2328;48.170;11.602;2024-02-14T13:37:26;0.80;;;0.40;;
4630;SDS011;2328;48.170;11.602;2024-02-14T13:39:56;0.50;;;0.30;;
4630;SDS011;2328;48.170;11.602;2024-02-14T13:42:24;0.50;;;0.30;;
4630;SDS011;2328;48.170;11.602;2024-02-14T13:44:55;0.40;;;0.30;;
4630;SDS011;2328;48.170;11.602;2024-02-14T13:47:44;0.50;;;0.30;;
4630;SDS011;2328;48.170;11.602;2024-02-14T13:50:18;0.50;;;0.40;;
4630;SDS011;2328;48.170;11.602;2024-02-14T13:52:47;0.50;;;0.30;;
4630;SDS011;2328;48.170;11.602;2024-02-14T13:57:51;0.60;;;0.40;;
4630;SDS011;2328;48.170;11.602;2024-02-14T14:00:20;0.80;;;0.50;;
4630;SDS011;2328;48.170;11.602;2024-02-14T14:02:48;0.53;;;0.37;;
4630;SDS011;2328;48.170;11.602;2024-02-14T14:05:19;0.93;;;0.50;;
4630;SDS011;2328;48.170;11.602;2024-02-14T14:07:49;0.80;;;0.30;;
4630;SDS011;2328;48.170;11.602;2024-02-14T14:10:24;0.77;;;0.40;;
4630;SDS011;2328;48.170;11.602;2024-02-14T14:12:54;0.80;;;0.40;;
4630;SDS011;2328;48.170;11.602;2024-02-14T14:15:23;0.57;;;0.40;;
4630;SDS011;2328;48.170;11.602;2024-02-14T14:17:53;0.83;;;0.40;;
4630;SDS011;2328;48.170;11.602;2024-02-14T14:20:23;0.80;;;0.40;;
4630;SDS011;2328;48.170;11.602;2024-02-14T14:23:00;0.50;;;0.30;;
4630;SDS011;2328;48.170;11.602;2024-02-14T14:25:30;1.00;;;0.33;;
4630;SDS011;2328;48.170;11.602;2024-02-14T14:27:59;1.13;;;0.50;;
4630;SDS011;2328;48.170;11.602;2024-02-14T14:30:33;0.87;;;0.40;;
4630;SDS011;2328;48.170;11.602;2024-02-14T14:33:02;1.03;;;0.30;;
4630;SDS011;2328;48.170;11.602;2024-02-14T14:35:34;0.63;;;0.40;;
4630;SDS011;2328;48.170;11.602;2024-02-14T14:38:02;8.43;;;0.60;;
4630;SDS011;2328;48.170;11.602;2024-02-14T14:43:06;4.53;;;0.47;;
4630;SDS011;2328;48.170;11.602;2024-02-14T14:45:35;0.50;;;0.40;;
4630;SDS011;2328;48.170;11.602;2024-02-14T14:48:06;0.70;;;0.30;;
4630;SDS011;2328;48.170;11.602;2024-02-14T14:50:37;0.70;;;0.60;;
4630;SDS011;2328;48.170;11.602;2024-02-14T14:53:06;0.70;;;0.47;;
4630;SDS011;2328;48.170;11.602;2024-02-14T14:55:49;6.83;;;0.40;;
4630;SDS011;2328;48.170;11.602;2024-02-14T14:58:18;0.77;;;0.43;;
4630;SDS011;2328;48.170;11.602;2024-02-14T15:00:49;2.60;;;0.63;;
4630;SDS011;2328;48.170;11.602;2024-02-14T15:03:21;0.60;;;0.50;;
4630;SDS011;2328;48.170;11.602;2024-02-14T15:05:52;2.00;;;0.40;;
4630;SDS011;2328;48.170;11.602;2024-02-14T15:08:21;5.10;;;0.40;;
4630;SDS011;2328;48.170;11.602;2024-02-14T15:10:53;1.30;;;0.43;;
4630;SDS011;2328;48.170;11.602;2024-02-14T15:13:22;0.50;;;0.40;;
4630;SDS011;2328;48.170;11.602;2024-02-14T15:15:51;0.77;;;0.50;;
4630;SDS011;2328;48.170;11.602;2024-02-14T15:18:20;0.77;;;0.30;;
4630;SDS011;2328;48.170;11.602;2024-02-14T15:20:48;0.50;;;0.30;;
4630;SDS011;2328;48.170;11.602;2024-02-14T15:23:20;0.50;;;0.30;;
4630;SDS011;2328;48.170;11.602;2024-02-14T15:25:51;0.70;;;0.60;;
4630;SDS011;2328;48.170;11.602;2024-02-14T15:28:25;0.60;;;0.50;;